Latest Weather Observations for Borrona Downs

IDN60801

Issued at 1:52 am EDT Wednesday 20 February 2019 (issued every 10 minutes, with the page automatically refreshed every 10 minutes)

About weather observations | Map of weather stations | Latest weather observations for NSW | Other Formats
Station Details ID: 046136 Name: BORRONA DOWNS AWS Lat: -29.76 Lon: 143.11 Height: 121.0 m
Data from the previous 72 hours. | See also: Recent months at Borrona Downs
Date/Time
EDT
Temp
°C
App
Temp
°C
Dew
Point
°C
Rel
Hum
%
Delta-T
°C
Wind Press
QNH
hPa
Press
MSL
hPa
Rain since
9am
mm
Dir  Spd
km/h
Gust
km/h
Spd
kts
Gust
kts
20/01:30am 24.5 - -1.3 18 11.6 - - - - - - - 0.0
20/01:00am 25.0 - -1.7 17 12.0 - - - - - - - 0.0
20/12:30am 25.6 - -2.9 15 12.6 - - - - - - - 0.0
20/12:00am 26.2 - -3.4 14 13.0 - - - - - - - 0.0
 
Date/Time
EDT
Temp
°C
App
Temp
°C
Dew
Point
°C
Rel
Hum
%
Delta-T
°C
Wind Press
QNH
hPa
Press
MSL
hPa
Rain since
9am
mm
Dir  Spd
km/h
Gust
km/h
Spd
kts
Gust
kts
19/11:30pm 26.8 - -2.9 14 13.2 - - - - - - - 0.0
19/11:00pm 27.3 - -3.5 13 13.6 - - - - - - - 0.0
19/10:30pm 27.9 - -3.0 13 13.8 - - - - - - - 0.0
19/10:00pm 28.4 - -3.7 12 14.3 - - - - - - - 0.0
19/09:30pm 28.9 - -3.3 12 14.5 - - - - - - - 0.0
19/09:00pm 29.5 - -2.9 12 14.7 - - - - - - - 0.0
19/08:30pm 30.1 - -2.4 12 15.0 - - - - - - - 0.0
19/08:00pm 30.8 - -3.0 11 15.5 - - - - - - - 0.0
19/07:30pm 31.5 - -1.3 12 15.6 - - - - - - - 0.0
19/07:00pm 31.9 - 0.1 13 15.5 - - - - - - - 0.0
19/06:30pm 32.5 - 1.6 14 15.5 - - - - - - - 0.0
19/06:00pm 32.6 - 1.7 14 15.5 - - - - - - - 0.0
19/05:30pm 32.8 - 1.8 14 15.6 - - - - - - - 0.0
19/05:00pm 32.9 - 2.9 15 15.4 - - - - - - - 0.0
19/04:30pm 33.0 - 2.9 15 15.5 - - - - - - - 0.0
19/04:00pm 32.8 - 3.7 16 15.1 - - - - - - - 0.0
19/03:30pm 32.1 - 4.8 18 14.4 - - - - - - - 0.0
19/03:00pm 32.4 - 5.8 19 14.3 - - - - - - - 0.0
19/02:30pm 32.0 - 6.2 20 13.9 - - - - - - - 0.0
19/02:00pm 30.7 - 5.9 21 13.2 - - - - - - - 0.0
19/01:30pm 30.4 - 6.3 22 12.9 - - - - - - - 0.0
19/01:00pm 29.6 - 6.3 23 12.4 - - - - - - - 0.0
19/12:30pm 30.1 - 6.7 23 12.6 - - - - - - - 0.0
19/12:00pm 28.7 - 6.1 24 12.0 - - - - - - - 0.0
19/11:30am 27.9 - 6.1 25 11.5 - - - - - - - 0.0
19/11:00am 26.9 - 6.3 27 10.8 - - - - - - - 0.0
19/10:30am 26.7 - 6.2 27 10.7 - - - - - - - 0.0
19/10:00am 25.9 - 6.0 28 10.3 - - - - - - - 0.0
19/09:30am 25.1 - 5.8 29 9.9 - - - - - - - 0.0
19/09:00am 25.1 - 5.8 29 9.9 - - - - - - - 0.0
19/08:30am 24.6 - 5.9 30 9.6 - - - - - - - 0.0
19/08:00am 24.3 - 6.1 31 9.4 - - - - - - - 0.0
19/07:30am 24.4 - 6.6 32 9.3 - - - - - - - 0.0
19/07:00am 24.9 - 8.0 34 9.0 - - - - - - - 0.0
19/06:30am 25.4 - 8.0 33 9.3 - - - - - - - 0.0
19/06:00am 25.9 - 8.0 32 9.6 - - - - - - - 0.0
19/05:30am 26.2 - 7.7 31 9.9 - - - - - - - 0.0
19/05:00am 26.6 - 8.1 31 10.0 - - - - - - - 0.0
19/04:30am 26.7 - 7.7 30 10.2 - - - - - - - 0.0
19/04:00am 27.3 - 7.2 28 10.7 - - - - - - - 0.0
19/03:30am 27.8 - 7.6 28 10.9 - - - - - - - 0.0
19/03:00am 28.8 - 7.4 26 11.6 - - - - - - - 0.0
19/02:30am 29.6 - 7.5 25 12.0 - - - - - - - 0.0
19/02:00am 30.6 - 7.1 23 12.8 - - - - - - - 0.0
19/01:30am 31.5 - 6.5 21 13.5 - - - - - - - 0.0
19/01:00am 33.3 - 8.0 21 14.1 - - - - - - - 0.0
19/12:30am 34.6 - 6.8 18 15.3 - - - - - - - 0.0
19/12:00am 30.8 - 4.5 19 13.7 - - - - - - - 0.0
 
Date/Time
EDT
Temp
°C
App
Temp
°C
Dew
Point
°C
Rel
Hum
%
Delta-T
°C
Wind Press
QNH
hPa
Press
MSL
hPa
Rain since
9am
mm
Dir  Spd
km/h
Gust
km/h
Spd
kts
Gust
kts
18/11:30pm 32.6 - 5.2 18 14.6 - - - - - - - 0.0
18/11:00pm 33.0 - 4.7 17 15.0 - - - - - - - 0.0
18/10:30pm 35.2 - 5.6 16 16.1 - - - - - - - 0.0
18/10:00pm 35.5 - 4.9 15 16.5 - - - - - - - 0.0
18/09:30pm 36.7 - 4.9 14 17.2 - - - - - - - 0.0
18/09:00pm 38.0 - 4.8 13 18.1 - - - - - - - 0.0
18/08:30pm 39.1 - 4.5 12 18.9 - - - - - - - 0.0
18/08:00pm 39.9 - 5.1 12 19.2 - - - - - - - 0.0
18/07:30pm 40.6 - 4.4 11 19.8 - - - - - - - 0.0
18/07:00pm 41.0 - 4.7 11 20.0 - - - - - - - 0.0
18/06:30pm 41.5 - 5.1 11 20.2 - - - - - - - 0.0
18/06:00pm 41.8 - 4.0 10 20.7 - - - - - - - 0.0
18/05:30pm 41.9 - 4.0 10 20.8 - - - - - - - 0.0
18/05:00pm 41.5 - 3.7 10 20.6 - - - - - - - 0.0
18/04:30pm 42.0 - 2.6 9 21.2 - - - - - - - 0.0
18/04:00pm 41.2 - 3.5 10 20.5 - - - - - - - 0.0
18/03:30pm 42.1 - 2.7 9 21.2 - - - - - - - 0.0
18/03:00pm 41.1 - 4.8 11 20.1 - - - - - - - 0.0
18/02:30pm 41.0 - 6.0 12 19.7 - - - - - - - 0.0
18/02:00pm 40.4 - 8.8 15 18.5 - - - - - - - 0.0
18/01:30pm 40.1 - 10.4 17 17.7 - - - - - - - 0.0
18/01:00pm 39.0 - 12.0 20 16.4 - - - - - - - 0.0
18/12:30pm 38.2 - 12.7 21 15.6 - - - - - - - 0.0
18/12:00pm 37.2 - 13.3 24 14.7 - - - - - - - 0.0
18/11:30am 36.2 - 14.2 26 13.7 - - - - - - - 0.0
18/11:00am 35.2 - 14.5 29 12.9 - - - - - - - 0.0
18/10:30am 34.8 - 14.7 30 12.5 - - - - - - - 0.0
18/10:00am 33.8 - 14.3 31 12.0 - - - - - - - 0.0
18/09:30am 32.9 - 14.0 32 11.6 - - - - - - - 0.0
18/09:00am 31.5 - 13.7 33 10.8 - - - - - - - 0.4
18/08:30am 30.2 - 13.5 36 10.0 - - - - - - - 0.4
18/08:00am 28.8 - 14.2 40 8.8 - - - - - - - 0.4
18/07:30am 27.5 - 14.5 45 7.9 - - - - - - - 0.4
18/07:00am 27.0 - 14.7 47 7.4 - - - - - - - 0.4
18/06:30am 27.7 - 14.3 43 8.1 - - - - - - - 0.4
18/06:00am 27.8 - 14.1 43 8.2 - - - - - - - 0.4
18/05:30am 27.8 - 14.4 43 8.1 - - - - - - - 0.4
18/05:00am 27.7 - 14.7 45 7.9 - - - - - - - 0.4
18/04:30am 28.0 - 14.6 44 8.1 - - - - - - - 0.4
18/04:00am 28.6 - 14.1 41 8.7 - - - - - - - 0.4
18/03:30am 28.3 - 15.2 44 8.0 - - - - - - - 0.4
18/03:00am 28.6 - 15.2 44 8.2 - - - - - - - 0.4
18/02:30am 28.9 - 14.7 42 8.6 - - - - - - - 0.4
18/02:00am 28.9 - 15.8 45 8.1 - - - - - - - 0.4
18/01:30am 30.1 - 14.6 39 9.5 - - - - - - - 0.4
18/01:00am 30.3 - 14.0 37 9.9 - - - - - - - 0.4
18/12:30am 29.6 - 14.2 39 9.3 - - - - - - - 0.4
18/12:00am 30.6 - 13.4 35 10.3 - - - - - - - 0.4
 
Date/Time
EDT
Temp
°C
App
Temp
°C
Dew
Point
°C
Rel
Hum
%
Delta-T
°C
Wind Press
QNH
hPa
Press
MSL
hPa
Rain since
9am
mm
Dir  Spd
km/h
Gust
km/h
Spd
kts
Gust
kts
17/11:30pm 31.4 - 13.2 33 10.9 - - - - - - - 0.4
17/11:00pm 32.0 - 12.8 31 11.5 - - - - - - - 0.4
17/10:30pm 32.5 - 12.7 30 11.9 - - - - - - - 0.4
17/10:00pm 33.9 - 12.3 27 12.9 - - - - - - - 0.4
17/09:30pm 32.8 - 13.9 31 11.5 - - - - - - - 0.4
17/09:00pm 33.5 - 13.5 29 12.2 - - - - - - - 0.4
17/08:30pm 34.4 - 12.7 27 13.1 - - - - - - - 0.4
17/08:00pm 35.4 - 12.4 25 13.9 - - - - - - - 0.4
17/07:30pm 35.5 - 13.1 26 13.7 - - - - - - - 0.2
17/07:00pm 36.8 - 12.9 24 14.6 - - - - - - - 0.2
17/06:30pm 36.5 - 15.0 27 13.5 - - - - - - - 0.2
17/06:00pm 36.8 - 10.9 21 15.4 - - - - - - - 0.0
17/05:30pm 37.3 - 11.3 21 15.5 - - - - - - - 0.0
17/05:00pm 39.2 - 10.5 18 17.1 - - - - - - - 0.0
17/04:30pm 39.6 - 10.0 17 17.5 - - - - - - - 0.0
17/04:00pm 39.2 - 10.5 18 17.1 - - - - - - - 0.0
17/03:30pm 39.3 - 10.6 18 17.1 - - - - - - - 0.0
17/03:00pm 39.5 - 12.4 20 16.6 - - - - - - - 0.0
17/02:30pm 39.2 - 12.1 20 16.5 - - - - - - - 0.0
17/02:00pm 38.8 - 13.2 21 15.8 - - - - - - - 0.0
17/01:30pm 37.8 - 13.8 24 14.9 - - - - - - - 0.0
17/01:00pm 37.8 - 13.8 24 14.9 - - - - - - - 0.0
17/12:30pm 37.6 - 14.2 25 14.6 - - - - - - - 0.0
17/12:00pm 36.6 - 14.0 26 14.0 - - - - - - - 0.0
17/11:30am 35.9 - 14.0 27 13.5 - - - - - - - 0.0
17/11:00am 35.3 - 13.5 27 13.4 - - - - - - - 0.0
17/10:30am 34.4 - 12.7 27 13.1 - - - - - - - 0.0
17/10:00am 33.9 - 11.7 26 13.2 - - - - - - - 0.0
17/09:30am 32.9 - 10.3 25 13.1 - - - - - - - 0.0
17/09:00am 31.4 - 8.4 24 12.8 - - - - - - - 0.0
17/08:30am 30.1 - 7.9 25 12.2 - - - - - - - 0.0
17/08:00am 28.9 - 8.0 27 11.4 - - - - - - - 0.0
17/07:30am 28.3 - 8.1 28 11.0 - - - - - - - 0.0
17/07:00am 28.5 - 7.7 27 11.3 - - - - - - - 0.0
17/06:30am 28.8 - 7.9 27 11.4 - - - - - - - 0.0
17/06:00am 29.1 - 7.7 26 11.7 - - - - - - - 0.0
17/05:30am 29.4 - 7.9 26 11.8 - - - - - - - 0.0
17/05:00am 29.6 - 7.5 25 12.0 - - - - - - - 0.0
17/04:30am 29.8 - 7.7 25 12.1 - - - - - - - 0.0
17/04:00am 30.1 - 7.3 24 12.4 - - - - - - - 0.0
17/03:30am 30.9 - 7.4 23 12.9 - - - - - - - 0.0
17/03:00am 31.0 - 7.5 23 12.9 - - - - - - - 0.0
17/02:30am 31.4 - 7.1 22 13.3 - - - - - - - 0.0
17/02:00am 32.1 - 7.0 21 13.7 - - - - - - - 0.0

Other formats

Comma delimited format used in spreadsheet applications
http://www.bom.gov.au/fwo/IDN60801/IDN60801.94407.axf

JavaScript Object Notation format (JSON) in row-major order
http://www.bom.gov.au/fwo/IDN60801/IDN60801.94407.json

Data quality

Most of these data are generated automatically and are frequently updated. Quality checks on data are not normally performed. It is possible for incorrect values to appear. Refer to information at About Latest Weather Observations and please check the disclaimer before using these data.